createdAt,value
2022-12-25T00:01:19.162Z,1.60
2022-12-25T00:03:46.124Z,1.00
2022-12-25T00:06:13.226Z,1.40
2022-12-25T00:08:40.614Z,1.10
2022-12-25T00:11:09.287Z,1.00
2022-12-25T00:13:36.219Z,1.10
2022-12-25T00:16:07.679Z,1.17
2022-12-25T00:18:34.523Z,1.05
2022-12-25T00:21:02.836Z,1.20
2022-12-25T00:23:29.749Z,1.20
2022-12-25T00:25:56.880Z,0.90
2022-12-25T00:28:24.365Z,1.13
2022-12-25T00:30:51.383Z,0.98
2022-12-25T00:33:18.530Z,1.35
2022-12-25T00:35:45.405Z,1.05
2022-12-25T00:38:12.215Z,1.30
2022-12-25T00:40:43.028Z,1.00
2022-12-25T00:43:09.973Z,1.10
2022-12-25T00:45:37.021Z,1.08
2022-12-25T00:48:03.997Z,1.00
2022-12-25T00:50:30.846Z,1.50
2022-12-25T00:52:57.681Z,1.10
2022-12-25T00:55:24.533Z,1.10
2022-12-25T00:57:51.375Z,0.98
2022-12-25T01:00:18.317Z,0.95
2022-12-25T01:02:45.387Z,1.10
2022-12-25T01:05:12.350Z,1.02
2022-12-25T01:07:39.138Z,1.08
2022-12-25T01:10:24.620Z,1.02
2022-12-25T01:12:52.103Z,0.93
2022-12-25T01:15:19.436Z,0.90
2022-12-25T01:17:46.411Z,0.90
2022-12-25T01:20:14.722Z,1.02
2022-12-25T01:22:41.705Z,1.27
2022-12-25T01:25:09.363Z,1.10
2022-12-25T01:27:36.256Z,1.08
2022-12-25T01:30:03.333Z,1.17
2022-12-25T01:32:30.235Z,1.90
2022-12-25T01:34:57.056Z,1.27
2022-12-25T01:37:24.891Z,1.00
2022-12-25T01:39:52.122Z,1.13
2022-12-25T01:42:20.423Z,1.25
2022-12-25T01:44:47.272Z,1.10
2022-12-25T01:47:15.080Z,1.10
2022-12-25T01:49:43.901Z,1.20
2022-12-25T01:52:24.451Z,1.05
2022-12-25T01:54:53.747Z,1.30
2022-12-25T01:57:23.682Z,1.00
2022-12-25T01:59:50.731Z,1.17
2022-12-25T02:02:17.945Z,1.77
2022-12-25T02:04:54.097Z,1.10
2022-12-25T02:07:23.375Z,1.13
2022-12-25T02:09:50.892Z,1.23
2022-12-25T02:12:20.506Z,1.20
2022-12-25T02:14:48.533Z,1.13
2022-12-25T02:17:29.252Z,1.00
2022-12-25T02:20:14.974Z,0.98
2022-12-25T02:22:53.140Z,1.20
2022-12-25T02:25:19.933Z,1.10
2022-12-25T02:27:52.698Z,1.23
2022-12-25T02:30:19.683Z,1.30
2022-12-25T02:32:52.341Z,1.30
2022-12-25T02:35:28.377Z,1.10
2022-12-25T02:38:04.474Z,1.27
2022-12-25T02:40:45.525Z,1.30
2022-12-25T02:43:34.407Z,1.60
2022-12-25T02:46:22.472Z,1.50
2022-12-25T02:49:10.568Z,1.48
2022-12-25T02:51:58.303Z,1.23
2022-12-25T02:54:45.711Z,1.13
2022-12-25T02:57:33.403Z,1.30
2022-12-25T03:00:20.137Z,1.40
2022-12-25T03:03:06.168Z,1.13
2022-12-25T03:05:52.787Z,1.00
2022-12-25T03:08:22.578Z,0.90
2022-12-25T03:11:10.533Z,1.33
2022-12-25T03:13:40.270Z,1.10
2022-12-25T03:16:26.305Z,0.98
2022-12-25T03:18:54.311Z,1.27
2022-12-25T03:21:39.669Z,1.30
2022-12-25T03:24:25.177Z,1.00
2022-12-25T03:26:58.039Z,0.98
2022-12-25T03:29:43.792Z,1.70
2022-12-25T03:32:13.444Z,1.20
2022-12-25T03:34:58.843Z,1.17
2022-12-25T03:38:04.883Z,1.45
2022-12-25T03:40:53.218Z,1.00
2022-12-25T03:43:46.392Z,1.00
2022-12-25T03:46:34.187Z,1.23
2022-12-25T03:49:25.830Z,1.40
2022-12-25T03:52:13.083Z,1.73
2022-12-25T03:54:59.733Z,1.20
2022-12-25T03:57:45.367Z,1.00
2022-12-25T04:00:31.166Z,0.93
2022-12-25T04:03:16.430Z,1.25
2022-12-25T04:06:02.298Z,1.33
2022-12-25T04:08:47.888Z,1.15
2022-12-25T04:11:50.184Z,1.00
2022-12-25T04:14:35.801Z,1.25
2022-12-25T04:17:21.277Z,1.38
2022-12-25T04:20:06.771Z,1.20
2022-12-25T04:22:52.409Z,1.30
2022-12-25T04:25:37.962Z,1.33
2022-12-25T04:28:23.703Z,1.45
2022-12-25T04:31:09.328Z,1.27
2022-12-25T04:33:54.906Z,1.10
2022-12-25T04:36:21.895Z,1.30
2022-12-25T04:38:48.755Z,1.45
2022-12-25T04:41:15.639Z,1.83
2022-12-25T04:43:42.499Z,1.38
2022-12-25T04:46:09.321Z,1.38
2022-12-25T04:48:37.031Z,1.10
2022-12-25T04:51:14.136Z,1.50
2022-12-25T04:53:40.984Z,1.58
2022-12-25T04:56:07.890Z,1.63
2022-12-25T04:58:34.762Z,1.25
2022-12-25T05:01:02.407Z,1.35
2022-12-25T05:03:30.068Z,1.20
2022-12-25T05:05:57.020Z,1.35
2022-12-25T05:08:23.841Z,1.20
2022-12-25T05:10:50.764Z,1.30
2022-12-25T05:13:17.679Z,1.63
2022-12-25T05:15:44.687Z,1.30
2022-12-25T05:18:11.646Z,1.30
2022-12-25T05:20:40.494Z,1.48
2022-12-25T05:23:08.711Z,1.50
2022-12-25T05:25:38.441Z,1.20
2022-12-25T05:28:05.350Z,1.42
2022-12-25T05:30:32.964Z,1.40
2022-12-25T05:32:59.789Z,1.60
2022-12-25T05:35:27.337Z,1.52
2022-12-25T05:37:54.172Z,1.00
2022-12-25T05:40:21.142Z,1.60
2022-12-25T05:42:47.946Z,1.63
2022-12-25T05:45:14.804Z,1.20
2022-12-25T05:47:41.675Z,1.05
2022-12-25T05:50:08.741Z,0.93
2022-12-25T05:52:35.654Z,1.00
2022-12-25T05:55:02.700Z,1.30
2022-12-25T05:57:30.063Z,1.23
2022-12-25T05:59:56.851Z,1.23
2022-12-25T06:02:24.702Z,1.25
2022-12-25T06:04:51.857Z,1.05
2022-12-25T06:07:18.698Z,0.90
2022-12-25T06:09:45.502Z,1.20
2022-12-25T06:12:12.433Z,1.30
2022-12-25T06:14:39.348Z,1.75
2022-12-25T06:17:06.308Z,1.73
2022-12-25T06:19:33.162Z,1.13
2022-12-25T06:22:00.129Z,1.23
2022-12-25T06:24:27.701Z,1.05
2022-12-25T06:26:54.630Z,1.02
2022-12-25T06:29:21.450Z,1.10
2022-12-25T06:31:48.366Z,1.40
2022-12-25T06:34:16.677Z,1.50
2022-12-25T06:36:43.688Z,1.30
2022-12-25T06:39:11.101Z,1.20
2022-12-25T06:41:38.190Z,1.63
2022-12-25T06:44:05.100Z,1.23
2022-12-25T06:46:32.311Z,1.33
2022-12-25T06:48:59.707Z,1.10
2022-12-25T06:51:30.889Z,1.13
2022-12-25T06:53:58.388Z,1.38
2022-12-25T06:56:26.992Z,1.20
2022-12-25T06:58:58.192Z,1.30
2022-12-25T07:01:31.550Z,1.20
2022-12-25T07:04:00.193Z,1.30
2022-12-25T07:06:27.024Z,1.40
2022-12-25T07:08:53.846Z,1.10
2022-12-25T07:11:21.149Z,1.20
2022-12-25T07:13:48.185Z,1.70
2022-12-25T07:16:15.015Z,1.63
2022-12-25T07:18:41.939Z,1.60
2022-12-25T07:21:12.977Z,1.25
2022-12-25T07:23:39.915Z,1.60
2022-12-25T07:26:07.209Z,1.25
2022-12-25T07:28:34.113Z,1.75
2022-12-25T07:31:04.984Z,1.63
2022-12-25T07:33:31.941Z,1.20
2022-12-25T07:35:58.906Z,1.17
2022-12-25T07:38:25.999Z,1.40
2022-12-25T07:40:53.711Z,1.42
2022-12-25T07:43:20.528Z,1.40
2022-12-25T07:45:47.521Z,1.30
2022-12-25T07:48:16.856Z,1.55
2022-12-25T07:50:44.027Z,1.20
2022-12-25T07:53:10.952Z,1.30
2022-12-25T07:55:38.018Z,1.30
2022-12-25T07:58:07.021Z,1.67
2022-12-25T08:00:34.378Z,1.10
2022-12-25T08:03:01.582Z,1.65
2022-12-25T08:05:28.671Z,1.20
2022-12-25T08:07:57.936Z,1.15
2022-12-25T08:10:25.241Z,1.48
2022-12-25T08:12:55.339Z,1.35
2022-12-25T08:15:22.195Z,1.25
2022-12-25T08:17:49.059Z,1.33
2022-12-25T08:20:15.885Z,1.13
2022-12-25T08:22:42.767Z,1.75
2022-12-25T08:25:09.989Z,1.42
2022-12-25T08:27:36.809Z,1.60
2022-12-25T08:30:03.854Z,1.42
2022-12-25T08:32:32.930Z,1.63
2022-12-25T08:34:59.754Z,1.40
2022-12-25T08:37:26.732Z,1.77
2022-12-25T08:39:53.782Z,1.23
2022-12-25T08:42:20.769Z,1.40
2022-12-25T08:44:47.883Z,1.70
2022-12-25T08:47:14.722Z,2.35
2022-12-25T08:49:41.622Z,1.70
2022-12-25T08:52:08.508Z,1.23
2022-12-25T08:54:36.527Z,1.27
2022-12-25T08:57:03.895Z,1.60
2022-12-25T08:59:31.007Z,1.23
2022-12-25T09:01:58.057Z,1.10
2022-12-25T09:04:25.115Z,1.30
2022-12-25T09:06:51.968Z,1.60
2022-12-25T09:09:18.862Z,1.45
2022-12-25T09:11:45.873Z,1.35
2022-12-25T09:14:14.358Z,1.30
2022-12-25T09:16:41.221Z,1.35
2022-12-25T09:19:08.113Z,1.20
2022-12-25T09:21:36.847Z,1.42
2022-12-25T09:24:04.549Z,1.10
2022-12-25T09:26:31.446Z,1.33
2022-12-25T09:28:58.284Z,1.40
2022-12-25T09:31:25.277Z,1.30
2022-12-25T09:33:55.827Z,1.33
2022-12-25T09:36:23.537Z,1.40
2022-12-25T09:38:51.155Z,1.25
2022-12-25T09:41:18.104Z,1.02
2022-12-25T09:44:05.398Z,1.08
2022-12-25T09:46:37.780Z,1.30
2022-12-25T09:49:06.287Z,1.25
2022-12-25T09:51:34.746Z,1.33
2022-12-25T09:54:09.317Z,1.23
2022-12-25T09:56:37.071Z,1.08
2022-12-25T09:59:03.982Z,1.50
2022-12-25T10:01:38.264Z,1.20
2022-12-25T10:04:08.269Z,1.27
2022-12-25T10:06:53.469Z,1.30
2022-12-25T10:09:45.094Z,1.90
2022-12-25T10:14:38.803Z,1.73
2022-12-25T10:17:21.150Z,1.60
2022-12-25T10:19:54.136Z,1.45
2022-12-25T10:22:27.437Z,1.42
2022-12-25T10:24:56.000Z,1.40
2022-12-25T10:27:32.602Z,1.45
2022-12-25T10:29:59.753Z,1.30
2022-12-25T10:32:26.827Z,1.90
2022-12-25T10:34:53.896Z,1.10
2022-12-25T10:37:20.896Z,1.30
2022-12-25T10:39:47.835Z,1.50
2022-12-25T10:42:24.119Z,1.73
2022-12-25T10:44:55.133Z,1.25
2022-12-25T10:47:27.131Z,1.80
2022-12-25T10:49:54.308Z,1.63
2022-12-25T10:52:27.186Z,1.55
2022-12-25T10:54:54.583Z,1.88
2022-12-25T10:57:23.590Z,1.40
2022-12-25T10:59:57.894Z,2.05
2022-12-25T11:02:28.132Z,1.88
2022-12-25T11:05:05.598Z,1.52
2022-12-25T11:07:33.382Z,1.50
2022-12-25T11:10:05.154Z,1.60
2022-12-25T11:12:35.313Z,1.60
2022-12-25T11:15:05.733Z,1.80
2022-12-25T11:17:32.825Z,1.48
2022-12-25T11:20:00.515Z,1.48
2022-12-25T11:22:28.971Z,1.15
2022-12-25T11:24:55.799Z,1.52
2022-12-25T11:27:27.618Z,1.50
2022-12-25T11:29:57.518Z,1.40
2022-12-25T11:32:43.196Z,1.38
2022-12-25T11:35:14.752Z,1.40
2022-12-25T11:40:14.851Z,1.33
2022-12-25T11:42:44.101Z,1.17
2022-12-25T11:45:17.921Z,1.48
2022-12-25T11:48:03.732Z,1.38
2022-12-25T11:50:31.005Z,1.30
2022-12-25T11:52:59.776Z,1.23
2022-12-25T11:55:38.421Z,1.55
2022-12-25T11:58:15.800Z,1.00
2022-12-25T12:00:43.559Z,0.90
2022-12-25T12:03:15.929Z,0.90
2022-12-25T12:05:48.096Z,0.90
2022-12-25T12:08:15.657Z,1.00
2022-12-25T12:11:01.003Z,0.65
2022-12-25T12:13:39.901Z,0.65
2022-12-25T12:16:08.544Z,0.65
2022-12-25T12:18:35.782Z,0.60
2022-12-25T12:21:10.712Z,0.70
2022-12-25T12:23:56.103Z,0.60
2022-12-25T12:26:27.333Z,0.80
2022-12-25T12:28:56.750Z,0.60
2022-12-25T12:31:24.138Z,0.70
2022-12-25T12:33:53.349Z,0.80
2022-12-25T12:36:29.203Z,0.70
2022-12-25T12:39:02.467Z,0.50
2022-12-25T12:41:47.529Z,0.75
2022-12-25T12:44:15.936Z,0.52
2022-12-25T12:46:51.943Z,0.80
2022-12-25T12:49:26.546Z,0.70
2022-12-25T12:52:07.228Z,0.90
2022-12-25T12:54:48.817Z,0.73
2022-12-25T12:57:24.055Z,0.70
2022-12-25T12:59:51.128Z,0.80
2022-12-25T13:02:21.112Z,1.20
2022-12-25T13:05:06.805Z,0.55
2022-12-25T13:07:56.947Z,0.68
2022-12-25T13:10:28.269Z,0.80
2022-12-25T13:12:58.552Z,0.70
2022-12-25T13:15:27.537Z,0.43
2022-12-25T13:17:55.808Z,0.70
2022-12-25T13:20:24.952Z,0.57
2022-12-25T13:22:53.127Z,0.75
2022-12-25T13:25:21.606Z,0.43
2022-12-25T13:27:55.742Z,1.05
2022-12-25T13:30:23.053Z,1.00
2022-12-25T13:32:50.170Z,0.93
2022-12-25T13:35:17.358Z,0.60
2022-12-25T13:37:44.586Z,0.60
2022-12-25T13:40:38.022Z,1.00
2022-12-25T13:43:04.976Z,0.80
2022-12-25T13:45:33.998Z,0.82
2022-12-25T13:48:10.322Z,0.68
2022-12-25T13:50:37.242Z,0.77
2022-12-25T13:53:16.176Z,0.80
2022-12-25T13:55:44.594Z,0.90
2022-12-25T13:58:18.192Z,0.80
2022-12-25T14:01:03.847Z,0.95
2022-12-25T14:03:33.916Z,0.90
2022-12-25T14:06:07.786Z,0.77
2022-12-25T14:08:35.688Z,0.70
2022-12-25T14:11:04.673Z,0.70
2022-12-25T14:13:32.931Z,0.80
2022-12-25T14:15:59.975Z,0.88
2022-12-25T14:18:27.055Z,0.77
2022-12-25T14:20:56.323Z,0.82
2022-12-25T14:23:24.358Z,0.73
2022-12-25T14:25:51.558Z,1.58
2022-12-25T14:28:26.911Z,0.95
2022-12-25T14:30:54.480Z,0.75
2022-12-25T14:33:22.988Z,0.90
2022-12-25T14:35:50.398Z,0.77
2022-12-25T14:38:23.364Z,0.93
2022-12-25T14:40:58.518Z,0.98
2022-12-25T14:43:26.433Z,0.93
2022-12-25T14:45:57.730Z,0.70
2022-12-25T14:48:29.267Z,0.90
2022-12-25T14:53:23.988Z,0.60
2022-12-25T14:55:52.247Z,1.10
2022-12-25T14:58:23.949Z,1.20
2022-12-25T15:00:55.268Z,1.13
2022-12-25T15:03:27.556Z,0.90
2022-12-25T15:05:58.448Z,1.20
2022-12-25T15:08:25.748Z,1.30
2022-12-25T15:11:00.516Z,1.35
2022-12-25T15:13:28.707Z,1.15
2022-12-25T15:16:02.280Z,1.08
2022-12-25T15:18:32.055Z,1.52
2022-12-25T15:20:59.050Z,1.10
2022-12-25T15:23:25.936Z,1.33
2022-12-25T15:25:52.915Z,1.65
2022-12-25T15:28:19.884Z,1.20
2022-12-25T15:30:47.211Z,1.30
2022-12-25T15:33:15.295Z,1.50
2022-12-25T15:35:44.294Z,1.88
2022-12-25T15:38:12.226Z,1.40
2022-12-25T15:40:39.612Z,1.27
2022-12-25T15:43:20.870Z,1.48
2022-12-25T15:45:53.349Z,1.10
2022-12-25T15:48:20.234Z,1.30
2022-12-25T15:50:47.107Z,1.42
2022-12-25T15:53:14.681Z,1.15
2022-12-25T15:55:41.571Z,1.20
2022-12-25T15:58:12.373Z,1.38
2022-12-25T16:00:39.213Z,1.33
2022-12-25T16:03:06.201Z,1.20
2022-12-25T16:05:33.239Z,1.30
2022-12-25T16:08:00.190Z,1.40
2022-12-25T16:10:27.062Z,1.20
2022-12-25T16:12:53.889Z,1.38
2022-12-25T16:15:20.760Z,1.35
2022-12-25T16:17:47.558Z,1.42
2022-12-25T16:20:15.107Z,1.27
2022-12-25T16:22:42.179Z,1.33
2022-12-25T16:25:17.306Z,1.50
2022-12-25T16:27:44.611Z,2.15
2022-12-25T16:30:13.693Z,1.48
2022-12-25T16:32:42.408Z,1.88
2022-12-25T16:35:09.899Z,1.70
2022-12-25T16:37:37.475Z,1.80
2022-12-25T16:40:04.783Z,1.05
2022-12-25T16:42:31.771Z,1.30
2022-12-25T16:44:58.693Z,1.23
2022-12-25T16:47:25.874Z,1.20
2022-12-25T16:49:52.818Z,1.20
2022-12-25T16:52:19.702Z,1.05
2022-12-25T16:54:46.884Z,1.00
2022-12-25T16:57:14.627Z,0.93
2022-12-25T16:59:41.828Z,1.40
2022-12-25T17:02:10.313Z,1.30
2022-12-25T17:04:37.419Z,1.05
2022-12-25T17:07:04.428Z,1.05
2022-12-25T17:09:31.585Z,1.45
2022-12-25T17:11:58.553Z,0.85
2022-12-25T17:14:25.381Z,1.15
2022-12-25T17:16:52.422Z,1.00
2022-12-25T17:19:20.427Z,1.20
2022-12-25T17:21:47.445Z,1.33
2022-12-25T17:24:15.145Z,1.38
2022-12-25T17:26:43.903Z,1.58
2022-12-25T17:29:12.238Z,1.85
2022-12-25T17:31:41.058Z,1.55
2022-12-25T17:34:09.089Z,1.80
2022-12-25T17:36:36.399Z,1.50
2022-12-25T17:39:04.574Z,1.55
2022-12-25T17:41:31.750Z,1.80
2022-12-25T17:43:58.602Z,1.90
2022-12-25T17:46:27.597Z,1.35
2022-12-25T17:48:55.382Z,1.90
2022-12-25T17:51:23.282Z,1.95
2022-12-25T17:53:51.696Z,1.70
2022-12-25T17:56:19.452Z,1.60
2022-12-25T17:58:50.777Z,1.83
2022-12-25T18:01:18.582Z,1.83
2022-12-25T18:03:46.052Z,1.83
2022-12-25T18:06:14.677Z,1.70
2022-12-25T18:08:42.670Z,1.85
2022-12-25T18:11:20.245Z,1.65
2022-12-25T18:13:50.042Z,1.77
2022-12-25T18:16:17.681Z,1.30
2022-12-25T18:18:51.471Z,1.30
2022-12-25T18:21:19.878Z,1.10
2022-12-25T18:23:46.846Z,1.70
2022-12-25T18:26:14.034Z,1.42
2022-12-25T18:28:42.724Z,1.30
2022-12-25T18:31:10.695Z,1.67
2022-12-25T18:33:37.635Z,1.20
2022-12-25T18:36:05.242Z,1.10
2022-12-25T18:38:32.346Z,1.10
2022-12-25T18:40:59.386Z,1.20
2022-12-25T18:43:51.286Z,1.35
2022-12-25T18:46:13.146Z,1.10
2022-12-25T18:48:40.365Z,1.40
2022-12-25T18:51:08.740Z,1.10
2022-12-25T18:53:36.928Z,1.27
2022-12-25T18:56:15.275Z,1.15
2022-12-25T18:58:42.659Z,1.02
2022-12-25T19:01:13.646Z,1.10
2022-12-25T19:03:40.869Z,1.35
2022-12-25T19:06:07.719Z,1.30
2022-12-25T19:08:34.578Z,1.20
2022-12-25T19:11:06.068Z,1.00
2022-12-25T19:13:32.931Z,1.85
2022-12-25T19:15:59.812Z,1.10
2022-12-25T19:18:26.773Z,1.10
2022-12-25T19:20:53.584Z,1.00
2022-12-25T19:23:20.465Z,0.85
2022-12-25T19:25:47.927Z,1.02
2022-12-25T19:28:14.970Z,0.85
2022-12-25T19:30:41.784Z,1.20
2022-12-25T19:33:15.721Z,0.98
2022-12-25T19:35:44.860Z,1.10
2022-12-25T19:38:11.740Z,1.00
2022-12-25T19:40:39.675Z,0.90
2022-12-25T19:43:06.754Z,1.02
2022-12-25T19:45:33.748Z,0.82
2022-12-25T19:48:00.719Z,1.08
2022-12-25T19:50:31.803Z,0.90
2022-12-25T19:52:58.918Z,1.00
2022-12-25T19:55:25.720Z,0.90
2022-12-25T19:57:52.710Z,0.80
2022-12-25T20:00:19.694Z,0.60
2022-12-25T20:02:47.196Z,0.80
2022-12-25T20:05:14.171Z,0.70
2022-12-25T20:07:41.446Z,0.70
2022-12-25T20:10:08.500Z,1.00
2022-12-25T20:12:35.656Z,1.10
2022-12-25T20:15:02.615Z,1.00
2022-12-25T20:17:29.653Z,1.20
2022-12-25T20:19:56.538Z,1.50
2022-12-25T20:22:23.423Z,2.13
2022-12-25T20:24:50.297Z,1.90
2022-12-25T20:27:17.184Z,2.22
2022-12-25T20:29:44.088Z,2.42
2022-12-25T20:32:11.056Z,2.10
2022-12-25T20:34:38.038Z,1.67
2022-12-25T20:37:05.016Z,1.48
2022-12-25T20:39:31.887Z,1.70
2022-12-25T20:41:58.770Z,1.50
2022-12-25T20:44:25.741Z,1.40
2022-12-25T20:46:53.022Z,1.77
2022-12-25T20:49:19.937Z,1.90
2022-12-25T20:51:46.788Z,1.67
2022-12-25T20:54:14.947Z,1.92
2022-12-25T20:56:41.962Z,1.55
2022-12-25T20:59:09.656Z,1.50
2022-12-25T21:01:36.534Z,1.30
2022-12-25T21:04:03.547Z,1.45
2022-12-25T21:06:30.654Z,1.50
2022-12-25T21:08:57.543Z,1.38
2022-12-25T21:11:24.560Z,1.45
2022-12-25T21:13:51.844Z,1.55
2022-12-25T21:16:22.508Z,1.58
2022-12-25T21:18:50.288Z,1.77
2022-12-25T21:21:17.249Z,1.40
2022-12-25T21:23:44.555Z,1.58
2022-12-25T21:26:20.290Z,1.77
2022-12-25T21:28:48.016Z,1.50
2022-12-25T21:31:15.342Z,1.65
2022-12-25T21:33:51.606Z,1.80
2022-12-25T21:36:18.529Z,1.52
2022-12-25T21:38:46.139Z,1.70
2022-12-25T21:41:13.974Z,2.50
2022-12-25T21:43:40.923Z,1.80
2022-12-25T21:46:09.078Z,1.73
2022-12-25T21:48:36.958Z,1.52
2022-12-25T21:51:27.010Z,1.50
2022-12-25T21:53:53.975Z,1.85
2022-12-25T21:56:20.945Z,1.63
2022-12-25T21:58:47.781Z,1.45
2022-12-25T22:01:17.548Z,1.50
2022-12-25T22:03:44.508Z,1.73
2022-12-25T22:06:30.604Z,1.40
2022-12-25T22:08:57.564Z,1.80
2022-12-25T22:11:43.615Z,1.80
2022-12-25T22:14:52.072Z,1.40
2022-12-25T22:17:49.498Z,1.90
2022-12-25T22:20:20.512Z,1.50
2022-12-25T22:22:47.411Z,1.10
2022-12-25T22:25:15.389Z,1.20
2022-12-25T22:27:43.256Z,1.40
2022-12-25T22:30:11.746Z,1.42
2022-12-25T22:32:39.178Z,1.73
2022-12-25T22:35:06.442Z,1.10
2022-12-25T22:37:33.478Z,1.38
2022-12-25T22:40:02.319Z,1.40
2022-12-25T22:42:29.321Z,1.20
2022-12-25T22:44:56.193Z,1.58
2022-12-25T22:47:23.176Z,1.25
2022-12-25T22:49:50.125Z,1.38
2022-12-25T22:52:17.047Z,0.95
2022-12-25T22:54:44.032Z,0.95
2022-12-25T22:57:10.925Z,0.85
2022-12-25T22:59:37.769Z,0.98
2022-12-25T23:02:04.748Z,1.35
2022-12-25T23:04:31.883Z,0.80
2022-12-25T23:06:58.679Z,1.50
2022-12-25T23:09:27.804Z,1.08
2022-12-25T23:11:58.316Z,1.58
2022-12-25T23:14:41.157Z,1.15
2022-12-25T23:17:29.801Z,1.40
2022-12-25T23:20:16.985Z,1.35
2022-12-25T23:23:03.282Z,1.00
2022-12-25T23:25:48.635Z,1.10
2022-12-25T23:28:35.440Z,1.35
2022-12-25T23:31:02.364Z,1.15
2022-12-25T23:33:29.214Z,1.58
2022-12-25T23:35:56.100Z,1.52
2022-12-25T23:38:22.949Z,1.35
2022-12-25T23:40:49.813Z,1.15
2022-12-25T23:43:16.670Z,1.38
2022-12-25T23:45:43.533Z,1.33
2022-12-25T23:48:10.360Z,1.30
2022-12-25T23:50:37.562Z,1.13
2022-12-25T23:53:04.638Z,1.13
2022-12-25T23:55:31.403Z,1.15
2022-12-25T23:57:58.235Z,1.05
